Time;durP1;ratioP1;P1;durP2;ratioP2;P2;SDS_P1;SDS_P2;PMS_P1;PMS_P2;Temp;Humidity;BMP_temperature;BMP_pressure;BME280_temperature;BME280_humidity;BME280_pressure;Samples;Min_cycle;Max_cycle;Signal;HPM_P1;HPM_P2
2023/09/26 00:00:19;;;;;;;5.40;4.90;;;13.10;99.90;;;;;;5011258;28;20185;-71
2023/09/26 00:02:46;;;;;;;5.90;5.13;;;13.10;99.90;;;;;;5011009;28;20661;-72
2023/09/26 00:05:12;;;;;;;6.17;5.10;;;13.10;99.90;;;;;;5011608;28;20202;-72
2023/09/26 00:07:38;;;;;;;8.33;5.00;;;13.10;99.90;;;;;;5009974;28;20183;-71
2023/09/26 00:10:05;;;;;;;12.07;5.80;;;13.10;99.90;;;;;;5010898;28;20682;-72
2023/09/26 00:12:31;;;;;;;5.67;5.10;;;13.10;99.90;;;;;;5011104;28;20180;-72
2023/09/26 00:14:57;;;;;;;5.83;5.23;;;13.10;99.90;;;;;;5013415;28;20524;-73
2023/09/26 00:17:23;;;;;;;6.77;5.80;;;13.10;99.90;;;;;;5016632;28;20226;-72
2023/09/26 00:19:49;;;;;;;5.27;4.87;;;13.10;99.90;;;;;;5009420;28;20582;-72
2023/09/26 00:22:14;;;;;;;6.07;5.17;;;13.10;99.90;;;;;;5011019;28;20188;-72
2023/09/26 00:24:40;;;;;;;5.57;4.87;;;13.00;99.90;;;;;;5011020;28;20184;-72
2023/09/26 00:27:06;;;;;;;5.40;4.93;;;13.00;99.90;;;;;;5011159;28;20730;-72
2023/09/26 00:29:33;;;;;;;7.63;5.50;;;13.00;99.90;;;;;;5011015;28;20204;-72
2023/09/26 00:31:59;;;;;;;5.17;4.67;;;13.00;99.90;;;;;;5010578;28;20612;-72
2023/09/26 00:34:25;;;;;;;7.27;4.83;;;12.90;99.90;;;;;;5011185;28;20180;-71
2023/09/26 00:36:51;;;;;;;8.43;5.03;;;12.90;99.90;;;;;;5010835;28;20181;-71
2023/09/26 00:39:17;;;;;;;5.40;5.00;;;12.90;99.90;;;;;;5010936;28;20291;-72
2023/09/26 00:41:43;;;;;;;5.67;5.23;;;12.80;99.90;;;;;;5010390;28;20191;-72
2023/09/26 00:44:11;;;;;;;6.97;5.40;;;12.80;99.90;;;;;;5010990;28;20246;-71
2023/09/26 00:46:36;;;;;;;5.67;5.10;;;12.80;99.90;;;;;;5011058;28;20444;-72
2023/09/26 00:49:03;;;;;;;7.97;5.33;;;12.70;99.90;;;;;;5010565;28;20211;-72
2023/09/26 00:51:30;;;;;;;7.60;5.43;;;12.70;99.90;;;;;;5010710;28;20184;-72
2023/09/26 00:53:56;;;;;;;6.40;5.80;;;12.70;99.90;;;;;;5010432;28;20188;-72
2023/09/26 00:56:22;;;;;;;5.40;4.77;;;12.60;99.90;;;;;;5011099;28;20176;-72
2023/09/26 00:58:48;;;;;;;5.67;5.13;;;12.60;99.90;;;;;;5010827;28;20195;-73
2023/09/26 01:01:14;;;;;;;6.87;5.97;;;12.60;99.90;;;;;;5010717;28;20176;-73
2023/09/26 01:03:40;;;;;;;8.40;5.60;;;12.50;99.90;;;;;;5010805;28;20190;-72
2023/09/26 01:06:06;;;;;;;7.23;5.40;;;12.50;99.90;;;;;;5002588;28;20594;-73
2023/09/26 01:08:32;;;;;;;6.23;5.73;;;12.50;99.90;;;;;;5010673;28;20667;-72
2023/09/26 01:11:01;;;;;;;7.20;5.90;;;12.50;99.90;;;;;;5010299;28;20211;-73
2023/09/26 01:13:26;;;;;;;6.20;5.63;;;12.50;99.90;;;;;;5010490;28;20177;-73
2023/09/26 01:15:52;;;;;;;6.33;5.73;;;12.50;99.90;;;;;;5012090;28;20536;-73
2023/09/26 01:18:23;;;;;;;6.07;5.53;;;12.50;99.90;;;;;;5014109;28;20196;-72
2023/09/26 01:20:49;;;;;;;5.50;5.00;;;12.50;99.90;;;;;;5013828;28;20253;-73
2023/09/26 01:23:15;;;;;;;8.23;5.70;;;12.50;99.90;;;;;;5012924;28;20718;-71
2023/09/26 01:25:42;;;;;;;6.57;5.90;;;12.50;99.90;;;;;;5014115;28;20176;-72
2023/09/26 01:28:09;;;;;;;10.60;5.70;;;12.50;99.90;;;;;;5005876;28;20204;-72
2023/09/26 01:30:37;;;;;;;8.73;5.87;;;12.50;99.90;;;;;;5012116;28;20706;-71
2023/09/26 01:33:04;;;;;;;6.77;6.07;;;12.40;99.90;;;;;;5013589;28;20212;-71
2023/09/26 01:35:31;;;;;;;5.97;5.40;;;12.40;99.90;;;;;;5013987;28;20180;-71
2023/09/26 01:37:56;;;;;;;7.27;6.57;;;12.40;99.90;;;;;;5013359;28;20172;-72
2023/09/26 01:40:22;;;;;;;7.53;5.60;;;12.40;99.90;;;;;;5012170;28;20176;-71
2023/09/26 01:42:48;;;;;;;6.33;5.83;;;12.30;99.90;;;;;;5013381;28;20199;-72
2023/09/26 01:45:14;;;;;;;6.93;5.83;;;12.30;99.90;;;;;;5012307;28;20588;-71
2023/09/26 01:47:46;;;;;;;6.10;5.60;;;12.30;99.90;;;;;;5013598;28;20647;-71
2023/09/26 01:50:12;;;;;;;6.50;5.90;;;12.30;99.90;;;;;;5013256;28;20305;-71
2023/09/26 01:52:38;;;;;;;6.33;5.50;;;12.30;99.90;;;;;;5013331;28;20207;-71
2023/09/26 01:55:11;;;;;;;6.40;5.80;;;12.20;99.90;;;;;;5013260;28;20648;-70
2023/09/26 01:57:37;;;;;;;6.27;5.63;;;12.20;99.90;;;;;;5013408;28;20169;-71
2023/09/26 02:00:11;;;;;;;7.87;6.27;;;12.20;99.90;;;;;;5011359;28;20702;-71
2023/09/26 02:02:41;;;;;;;6.37;5.83;;;12.20;99.90;;;;;;5013274;28;20183;-71
2023/09/26 02:05:12;;;;;;;6.30;5.70;;;12.10;99.90;;;;;;5013012;28;20652;-71
2023/09/26 02:07:38;;;;;;;9.57;6.20;;;12.10;99.90;;;;;;5013081;28;20244;-71
2023/09/26 02:10:04;;;;;;;7.00;5.60;;;12.10;99.90;;;;;;5012719;28;20200;-71
2023/09/26 02:12:31;;;;;;;7.00;6.30;;;12.10;99.90;;;;;;5013236;28;20180;-70
2023/09/26 02:14:57;;;;;;;6.50;5.90;;;12.10;99.90;;;;;;5012811;28;20255;-72
2023/09/26 02:17:22;;;;;;;6.47;5.87;;;12.10;99.90;;;;;;5013316;28;20252;-71
2023/09/26 02:19:48;;;;;;;6.77;6.10;;;12.00;99.90;;;;;;5012958;28;20200;-72
2023/09/26 02:22:14;;;;;;;7.43;6.50;;;12.10;99.90;;;;;;5012934;28;20746;-70
2023/09/26 02:24:39;;;;;;;6.70;6.00;;;12.00;99.90;;;;;;5013172;28;20230;-70
2023/09/26 02:27:05;;;;;;;10.23;6.03;;;12.00;99.90;;;;;;5012634;28;20624;-71
2023/09/26 02:29:31;;;;;;;6.80;6.20;;;12.00;99.90;;;;;;5012913;28;20228;-70
2023/09/26 02:31:56;;;;;;;8.13;6.53;;;12.00;99.90;;;;;;5011170;28;20263;-70
2023/09/26 02:34:24;;;;;;;10.27;6.30;;;12.00;99.90;;;;;;5013128;28;20545;-71
2023/09/26 02:36:50;;;;;;;8.40;6.30;;;12.00;99.90;;;;;;5012774;28;20169;-71
2023/09/26 02:39:17;;;;;;;7.03;6.43;;;11.90;99.90;;;;;;5012846;28;20250;-71
2023/09/26 02:41:43;;;;;;;7.67;6.97;;;11.90;99.90;;;;;;5012529;28;20188;-71
2023/09/26 02:44:08;;;;;;;7.17;6.43;;;11.90;99.90;;;;;;5012524;28;20229;-70
2023/09/26 02:46:34;;;;;;;6.77;6.13;;;11.90;99.90;;;;;;5011810;28;20220;-71
2023/09/26 02:49:00;;;;;;;7.50;6.83;;;11.80;99.90;;;;;;5012877;28;20207;-71
2023/09/26 02:51:26;;;;;;;7.23;6.30;;;11.80;99.90;;;;;;5018610;28;20255;-71
2023/09/26 02:53:52;;;;;;;7.27;6.57;;;11.80;99.90;;;;;;5012350;28;20173;-71
2023/09/26 02:56:18;;;;;;;8.43;6.57;;;11.80;99.90;;;;;;5012792;28;20246;-71
2023/09/26 02:58:43;;;;;;;7.57;6.87;;;11.80;99.90;;;;;;5012781;28;20656;-70
2023/09/26 03:01:18;;;;;;;11.20;6.53;;;11.80;99.90;;;;;;5020261;28;20180;-71
2023/09/26 03:03:44;;;;;;;7.30;6.70;;;11.70;99.90;;;;;;5012709;28;20185;-71
2023/09/26 03:06:10;;;;;;;9.77;6.77;;;11.80;99.90;;;;;;5012050;28;20707;-71
2023/09/26 03:08:35;;;;;;;7.07;6.40;;;11.70;99.90;;;;;;5018930;28;20199;-71
2023/09/26 03:11:02;;;;;;;8.07;6.87;;;11.70;99.90;;;;;;5013382;28;20259;-71
2023/09/26 03:13:32;;;;;;;7.57;6.10;;;11.70;99.90;;;;;;5011961;28;20180;-71
2023/09/26 03:15:58;;;;;;;6.50;6.00;;;11.70;99.90;;;;;;5012145;28;20172;-73
2023/09/26 03:18:25;;;;;;;7.37;6.67;;;11.70;99.90;;;;;;5012415;28;20231;-70
2023/09/26 03:20:52;;;;;;;8.20;7.40;;;11.60;99.90;;;;;;5011817;28;20172;-70
2023/09/26 03:23:19;;;;;;;7.30;6.60;;;11.60;99.90;;;;;;5012448;28;20180;-71
2023/09/26 03:25:45;;;;;;;7.20;6.50;;;11.60;99.90;;;;;;5012257;28;20258;-71
2023/09/26 03:28:11;;;;;;;11.23;7.07;;;11.50;99.90;;;;;;5010417;28;20295;-71
2023/09/26 03:30:39;;;;;;;7.43;6.73;;;11.50;99.90;;;;;;5011742;28;20207;-71
2023/09/26 03:33:04;;;;;;;7.00;6.30;;;11.50;99.90;;;;;;5011875;28;20176;-71
2023/09/26 03:35:30;;;;;;;7.53;6.30;;;11.50;99.90;;;;;;5012044;28;20523;-70
2023/09/26 03:37:56;;;;;;;7.13;6.47;;;11.50;99.90;;;;;;5010999;28;20177;-70
2023/09/26 03:40:22;;;;;;;9.73;6.43;;;11.40;99.90;;;;;;5011636;28;20234;-70
2023/09/26 03:42:47;;;;;;;8.03;7.33;;;11.40;99.90;;;;;;5011770;28;20259;-70
2023/09/26 03:45:13;;;;;;;7.77;6.97;;;11.40;99.90;;;;;;5019758;28;20184;-71
2023/09/26 03:47:38;;;;;;;6.97;6.37;;;11.40;99.90;;;;;;5011787;28;20176;-71
2023/09/26 03:50:04;;;;;;;9.20;6.67;;;11.30;99.90;;;;;;5011211;28;20222;-70
2023/09/26 03:52:30;;;;;;;7.10;6.47;;;11.30;99.90;;;;;;5011537;28;20172;-70
2023/09/26 03:54:56;;;;;;;7.47;6.87;;;11.30;99.90;;;;;;5011669;28;20247;-71
2023/09/26 03:57:21;;;;;;;7.70;6.90;;;11.30;99.90;;;;;;5011707;28;20648;-71
2023/09/26 03:59:50;;;;;;;7.80;7.13;;;11.20;99.90;;;;;;5011582;28;20206;-71
2023/09/26 04:02:16;;;;;;;8.83;7.33;;;11.20;99.90;;;;;;5011305;28;20648;-71
2023/09/26 04:04:42;;;;;;;7.47;6.77;;;11.20;99.90;;;;;;5011748;28;20180;-71
2023/09/26 04:07:07;;;;;;;8.47;7.63;;;11.20;99.90;;;;;;5011581;28;20329;-70
2023/09/26 04:09:34;;;;;;;8.57;7.77;;;11.10;99.90;;;;;;5010212;28;20207;-71
2023/09/26 04:12:01;;;;;;;8.57;7.67;;;11.10;99.90;;;;;;5010993;28;20176;-70
2023/09/26 04:14:27;;;;;;;8.43;7.53;;;11.10;99.90;;;;;;5011204;28;20230;-72
2023/09/26 04:16:53;;;;;;;9.43;7.27;;;11.10;99.90;;;;;;5011496;28;20180;-71
2023/09/26 04:19:18;;;;;;;8.37;7.40;;;11.00;99.90;;;;;;5011280;28;20542;-70
2023/09/26 04:21:45;;;;;;;7.77;6.97;;;11.00;99.90;;;;;;5010242;28;20175;-71
2023/09/26 04:24:10;;;;;;;8.50;7.47;;;11.00;99.90;;;;;;5011132;28;20187;-70
2023/09/26 04:26:36;;;;;;;9.33;7.47;;;11.00;99.90;;;;;;5011305;28;20176;-71
2023/09/26 04:29:02;;;;;;;8.47;7.60;;;11.00;99.90;;;;;;5010766;28;20199;-71
2023/09/26 04:31:27;;;;;;;9.87;7.97;;;10.90;99.90;;;;;;5010992;28;20184;-71
2023/09/26 04:33:53;;;;;;;8.00;7.23;;;10.90;99.90;;;;;;5019245;28;20176;-71
2023/09/26 04:36:19;;;;;;;8.57;7.77;;;10.90;99.90;;;;;;5011010;28;20320;-71
2023/09/26 04:38:46;;;;;;;9.30;8.40;;;10.90;99.90;;;;;;5009903;28;20196;-71
2023/09/26 04:41:13;;;;;;;8.73;7.90;;;10.90;99.90;;;;;;5010657;28;20207;-72
2023/09/26 04:43:39;;;;;;;9.00;8.10;;;10.90;99.90;;;;;;5011102;28;20220;-71
2023/09/26 04:46:11;;;;;;;8.43;7.73;;;10.90;99.90;;;;;;5010869;28;20671;-71
2023/09/26 04:48:39;;;;;;;8.80;8.00;;;10.90;99.90;;;;;;5019200;28;20603;-71
2023/09/26 04:51:12;;;;;;;9.53;7.93;;;10.80;99.90;;;;;;5022454;28;20292;-72
2023/09/26 04:53:38;;;;;;;8.97;8.07;;;10.80;99.90;;;;;;5014904;28;20180;-71
2023/09/26 04:56:04;;;;;;;9.47;7.73;;;10.80;99.90;;;;;;5015906;28;20540;-71
2023/09/26 04:58:30;;;;;;;8.73;7.87;;;10.80;99.90;;;;;;5021042;28;20262;-71
2023/09/26 05:00:57;;;;;;;9.40;8.50;;;10.80;99.90;;;;;;5014233;28;20663;-73
2023/09/26 05:03:23;;;;;;;8.60;7.80;;;10.70;99.90;;;;;;5012987;28;20194;-70
2023/09/26 05:05:49;;;;;;;9.23;8.33;;;10.70;99.90;;;;;;5014533;28;20530;-70
2023/09/26 05:08:15;;;;;;;8.50;7.60;;;10.70;99.90;;;;;;5014007;28;20578;-70
2023/09/26 05:10:41;;;;;;;9.53;8.40;;;10.70;99.90;;;;;;5014103;28;20239;-70
2023/09/26 05:13:07;;;;;;;9.70;8.80;;;10.70;99.90;;;;;;5014075;28;20176;-72
2023/09/26 05:15:34;;;;;;;11.47;8.90;;;10.70;99.90;;;;;;5014411;28;20259;-71
2023/09/26 05:18:01;;;;;;;10.00;8.40;;;10.70;99.90;;;;;;5022081;28;20599;-71
2023/09/26 05:20:26;;;;;;;9.70;8.70;;;10.70;99.90;;;;;;5013947;28;20180;-71
2023/09/26 05:22:52;;;;;;;9.53;8.53;;;10.70;99.90;;;;;;5014362;28;20547;-70
2023/09/26 05:25:18;;;;;;;12.87;9.47;;;10.70;99.90;;;;;;5012836;28;20211;-71
2023/09/26 05:27:44;;;;;;;9.87;8.93;;;10.70;99.90;;;;;;5014105;28;20212;-71
2023/09/26 05:30:11;;;;;;;10.23;8.87;;;10.70;99.90;;;;;;5013432;28;20742;-71
2023/09/26 05:32:38;;;;;;;9.20;8.33;;;10.70;99.90;;;;;;5013847;28;20202;-71
2023/09/26 05:35:06;;;;;;;9.73;8.73;;;10.70;99.90;;;;;;5013993;28;20199;-71
2023/09/26 05:37:32;;;;;;;11.70;9.50;;;10.70;99.90;;;;;;5013887;28;20176;-71
2023/09/26 05:39:58;;;;;;;11.00;8.47;;;10.80;99.90;;;;;;5021982;28;20240;-71
2023/09/26 05:42:23;;;;;;;9.83;8.90;;;10.80;99.90;;;;;;5013656;28;20635;-71
2023/09/26 05:44:49;;;;;;;11.67;9.77;;;10.80;99.90;;;;;;5012545;28;20184;-71
2023/09/26 05:47:15;;;;;;;10.13;9.13;;;10.80;99.90;;;;;;5013484;28;20233;-71
2023/09/26 05:49:40;;;;;;;10.73;8.83;;;10.90;99.90;;;;;;5013502;28;20550;-71
2023/09/26 05:52:06;;;;;;;9.60;8.70;;;10.90;99.90;;;;;;5013607;28;20191;-71
2023/09/26 05:54:33;;;;;;;11.50;8.80;;;10.90;99.90;;;;;;5013692;28;20185;-72
2023/09/26 05:56:58;;;;;;;11.77;9.83;;;10.90;99.90;;;;;;5013697;28;20184;-71
2023/09/26 05:59:24;;;;;;;9.60;8.67;;;11.00;99.90;;;;;;5013430;28;20536;-71
2023/09/26 06:01:49;;;;;;;11.23;10.03;;;11.00;99.90;;;;;;5012690;28;20684;-71
2023/09/26 06:04:16;;;;;;;26.00;12.57;;;11.10;99.90;;;;;;5013298;28;20602;-71
2023/09/26 06:06:42;;;;;;;10.53;9.37;;;11.10;99.90;;;;;;5013478;28;20259;-70
2023/09/26 06:09:08;;;;;;;10.63;9.53;;;11.20;99.90;;;;;;5011771;28;20779;-72
2023/09/26 06:11:34;;;;;;;10.77;9.67;;;11.20;99.90;;;;;;5011965;28;20172;-71
2023/09/26 06:13:59;;;;;;;10.07;8.90;;;11.30;99.90;;;;;;5012792;28;20264;-71
2023/09/26 06:16:25;;;;;;;13.73;8.87;;;11.30;99.90;;;;;;5012981;28;20250;-71
2023/09/26 06:18:52;;;;;;;11.60;10.40;;;11.40;99.90;;;;;;5013360;28;20254;-71
2023/09/26 06:21:18;;;;;;;10.40;9.43;;;11.40;99.90;;;;;;5012608;28;20184;-71
2023/09/26 06:23:44;;;;;;;10.33;9.20;;;11.50;99.90;;;;;;5011738;28;20180;-72
2023/09/26 06:26:09;;;;;;;10.13;9.13;;;11.60;99.90;;;;;;5012590;28;20194;-70
2023/09/26 06:28:35;;;;;;;9.93;8.93;;;11.60;99.90;;;;;;5021147;28;20203;-71
2023/09/26 06:31:08;;;;;;;13.23;10.00;;;11.70;99.90;;;;;;5012867;28;20745;-71
2023/09/26 06:33:35;;;;;;;10.10;8.60;;;11.70;99.90;;;;;;5013003;28;20177;-71
2023/09/26 06:36:01;;;;;;;11.07;8.80;;;11.80;99.90;;;;;;5012657;28;20176;-71
2023/09/26 06:38:28;;;;;;;10.33;9.33;;;12.00;99.90;;;;;;5012385;28;20595;-71
2023/09/26 06:41:01;;;;;;;10.70;8.80;;;12.30;99.90;;;;;;5012477;28;20184;-71
2023/09/26 06:43:27;;;;;;;10.50;8.90;;;12.70;99.90;;;;;;5012636;28;20200;-71
2023/09/26 06:45:53;;;;;;;10.57;7.40;;;13.00;99.90;;;;;;5012607;28;20207;-71
2023/09/26 06:48:19;;;;;;;7.33;6.63;;;13.30;99.90;;;;;;5012272;28;20218;-71
2023/09/26 06:50:44;;;;;;;7.40;6.70;;;13.50;99.90;;;;;;5012221;28;20705;-72
2023/09/26 06:53:10;;;;;;;6.57;6.03;;;13.70;99.90;;;;;;5012227;28;20275;-71
2023/09/26 06:55:39;;;;;;;6.87;6.07;;;13.80;99.90;;;;;;5012495;28;20176;-71
2023/09/26 06:58:08;;;;;;;8.07;5.87;;;14.10;99.90;;;;;;5010769;28;20215;-72
2023/09/26 07:00:40;;;;;;;6.00;5.40;;;14.40;99.90;;;;;;5012006;28;20188;-71
2023/09/26 07:03:06;;;;;;;5.80;5.27;;;14.80;99.90;;;;;;5012936;28;20204;-71
2023/09/26 07:05:32;;;;;;;6.43;4.93;;;15.30;99.90;;;;;;5019753;28;20215;-71
2023/09/26 07:07:57;;;;;;;6.07;5.10;;;15.70;99.90;;;;;;5012045;28;20647;-71
2023/09/26 07:10:23;;;;;;;8.17;4.83;;;16.00;99.90;;;;;;5011500;28;20207;-72
2023/09/26 07:12:49;;;;;;;6.57;4.60;;;16.30;99.90;;;;;;5011108;28;20176;-72
2023/09/26 07:15:15;;;;;;;5.23;4.57;;;16.60;99.90;;;;;;5011528;28;20565;-72
2023/09/26 07:17:41;;;;;;;4.77;4.20;;;17.00;99.90;;;;;;5010658;28;20226;-72
2023/09/26 07:20:13;;;;;;;5.30;4.77;;;17.50;99.90;;;;;;5011600;28;20235;-71
2023/09/26 07:22:40;;;;;;;5.82;4.28;;;18.00;99.90;;;;;;5012029;28;20525;-71
2023/09/26 07:25:06;;;;;;;6.17;4.30;;;18.60;99.90;;;;;;5011904;28;20605;-71
2023/09/26 07:27:32;;;;;;;7.33;4.53;;;18.90;99.90;;;;;;5010538;28;20311;-71
2023/09/26 07:29:57;;;;;;;6.83;4.73;;;19.10;99.90;;;;;;5011678;28;20264;-73
2023/09/26 07:32:23;;;;;;;4.60;4.20;;;19.20;99.90;;;;;;5011391;28;20632;-71
2023/09/26 07:34:49;;;;;;;6.03;4.03;;;19.30;99.90;;;;;;5011930;28;20188;-71
2023/09/26 07:37:14;;;;;;;5.05;4.43;;;19.50;99.90;;;;;;5011582;28;20655;-70
2023/09/26 07:39:44;;;;;;;6.70;5.28;;;19.70;99.90;;;;;;5011817;28;20200;-71
2023/09/26 07:42:09;;;;;;;5.60;5.10;;;19.90;99.90;;;;;;5011440;28;20203;-71
2023/09/26 07:44:35;;;;;;;6.38;5.88;;;20.00;99.90;;;;;;5011615;28;20190;-73
2023/09/26 07:47:00;;;;;;;6.13;4.70;;;20.10;99.90;;;;;;5011546;28;20194;-73
2023/09/26 07:49:26;;;;;;;5.50;5.00;;;20.30;99.90;;;;;;5011341;28;20212;-72
2023/09/26 07:51:52;;;;;;;5.63;5.03;;;20.40;99.90;;;;;;5011463;28;20256;-72
2023/09/26 07:54:17;;;;;;;10.18;4.32;;;20.50;99.90;;;;;;5011273;28;20176;-72
2023/09/26 07:56:43;;;;;;;4.63;4.10;;;20.70;99.90;;;;;;5011533;28;20524;-73
2023/09/26 07:59:08;;;;;;;4.65;4.25;;;20.90;99.90;;;;;;5011483;28;20206;-73
2023/09/26 08:01:34;;;;;;;8.88;3.80;;;21.30;99.90;;;;;;5011192;28;20180;-73
2023/09/26 08:04:00;;;;;;;5.32;4.20;;;21.60;99.90;;;;;;5011457;28;20207;-73
2023/09/26 08:06:25;;;;;;;4.65;4.22;;;21.80;99.90;;;;;;5011058;28;20182;-73
2023/09/26 08:08:51;;;;;;;11.07;4.55;;;22.00;99.90;;;;;;5010028;28;20202;-73
2023/09/26 08:11:16;;;;;;;4.93;4.13;;;22.20;99.90;;;;;;5011032;28;20212;-72
2023/09/26 08:13:42;;;;;;;7.05;4.40;;;22.50;99.90;;;;;;5010902;28;20204;-71
2023/09/26 08:16:08;;;;;;;4.82;3.80;;;22.50;99.90;;;;;;5011145;28;20191;-73
2023/09/26 08:18:34;;;;;;;4.93;4.40;;;22.50;99.90;;;;;;5011101;28;20664;-73
2023/09/26 08:21:00;;;;;;;6.47;4.10;;;23.00;99.90;;;;;;5011100;28;20271;-73
2023/09/26 08:23:26;;;;;;;6.90;4.28;;;23.30;99.90;;;;;;5011006;28;20186;-73
2023/09/26 08:26:02;;;;;;;5.32;4.15;;;23.40;99.90;;;;;;5015099;28;20184;-73
2023/09/26 08:28:28;;;;;;;4.20;3.80;;;23.60;99.90;;;;;;5013442;28;20211;-73
2023/09/26 08:30:57;;;;;;;5.38;3.97;;;23.60;99.90;;;;;;5014935;28;20196;-73
2023/09/26 08:33:26;;;;;;;4.75;3.80;;;23.70;99.90;;;;;;5013702;28;20180;-73
2023/09/26 08:35:52;;;;;;;4.93;3.65;;;23.50;99.90;;;;;;5013785;28;20176;-73
2023/09/26 08:38:18;;;;;;;5.43;4.93;;;23.30;99.90;;;;;;5014556;28;20203;-74
2023/09/26 08:40:44;;;;;;;8.52;4.07;;;23.10;99.90;;;;;;5014771;28;20546;-74
2023/09/26 08:43:12;;;;;;;4.43;4.03;;;23.10;99.90;;;;;;5014619;28;20227;-73
2023/09/26 08:45:40;;;;;;;7.93;4.00;;;23.20;99.90;;;;;;5014084;28;20193;-74
2023/09/26 08:48:06;;;;;;;4.22;3.83;;;23.20;99.90;;;;;;5014667;28;20206;-73
2023/09/26 08:50:31;;;;;;;4.00;3.58;;;23.40;99.90;;;;;;5014184;28;20563;-74
2023/09/26 08:52:59;;;;;;;7.00;3.83;;;23.40;99.90;;;;;;5014890;28;20234;-71
2023/09/26 08:55:26;;;;;;;6.72;3.33;;;23.50;99.90;;;;;;5037685;22;20176;-68
2023/09/26 08:57:53;;;;;;;7.20;3.75;;;23.60;99.90;;;;;;4993766;28;20180;-67
2023/09/26 09:00:20;;;;;;;3.40;3.10;;;23.70;99.90;;;;;;4994436;28;20203;-68
2023/09/26 09:02:46;;;;;;;3.50;3.20;;;24.20;99.90;;;;;;4995051;28;20211;-68
2023/09/26 09:05:13;;;;;;;4.40;3.35;;;24.60;99.90;;;;;;4994681;28;20205;-69
2023/09/26 09:07:40;;;;;;;5.68;3.03;;;25.00;99.90;;;;;;4975292;28;20260;-68
2023/09/26 09:10:07;;;;;;;5.20;3.20;;;25.50;99.90;;;;;;4975155;28;20248;-69
2023/09/26 09:12:33;;;;;;;5.38;3.22;;;25.60;99.90;;;;;;4974928;28;20181;-68
2023/09/26 09:14:59;;;;;;;5.50;3.20;;;25.60;99.90;;;;;;4974515;28;20209;-68
2023/09/26 09:17:25;;;;;;;7.47;2.88;;;25.60;99.90;;;;;;4975188;28;20227;-68
2023/09/26 09:19:52;;;;;;;7.57;3.17;;;25.60;99.90;;;;;;4975225;28;20181;-68
2023/09/26 09:22:20;;;;;;;4.70;3.17;;;25.50;99.90;;;;;;4974726;28;20264;-69
2023/09/26 09:24:56;;;;;;;4.95;3.00;;;25.60;99.90;;;;;;4975440;28;20181;-68
2023/09/26 09:27:34;;;;;;;6.30;3.28;;;25.90;99.90;;;;;;4974747;28;20209;-69
2023/09/26 09:30:14;;;;;;;4.30;3.60;;;25.90;99.90;;;;;;4982121;28;20701;-68
2023/09/26 09:32:41;;;;;;;6.25;3.17;;;25.90;99.90;;;;;;4967967;28;20513;-69
2023/09/26 09:35:13;;;;;;;5.55;3.63;;;26.10;99.90;;;;;;4974784;28;20174;-68
2023/09/26 09:37:45;;;;;;;4.55;3.47;;;26.10;99.90;;;;;;4974573;28;20169;-68
2023/09/26 09:40:15;;;;;;;3.30;3.00;;;26.30;99.90;;;;;;4974832;28;20185;-68
2023/09/26 09:42:41;;;;;;;4.07;3.38;;;26.10;99.90;;;;;;4989594;28;20530;-68
2023/09/26 09:45:09;;;;;;;4.75;3.80;;;25.90;99.90;;;;;;4974926;28;20268;-69
2023/09/26 09:47:37;;;;;;;5.22;3.35;;;26.00;99.90;;;;;;4974573;28;20276;-68
2023/09/26 09:50:05;;;;;;;3.65;3.20;;;26.10;99.90;;;;;;4974603;28;20573;-68
2023/09/26 09:52:34;;;;;;;3.67;3.10;;;26.10;99.90;;;;;;4974202;28;20224;-69
2023/09/26 09:55:03;;;;;;;5.68;2.90;;;26.00;99.90;;;;;;4974500;28;20232;-69
2023/09/26 09:57:33;;;;;;;3.30;3.00;;;25.80;99.90;;;;;;4989311;28;21176;-69
2023/09/26 10:00:00;;;;;;;7.35;3.00;;;25.70;99.90;;;;;;4974635;28;20187;-69
2023/09/26 10:02:26;;;;;;;6.50;3.22;;;25.50;99.90;;;;;;4988924;28;20189;-69
2023/09/26 10:04:55;;;;;;;3.30;3.00;;;25.40;99.90;;;;;;4974666;28;20177;-68
2023/09/26 10:07:24;;;;;;;4.10;2.80;;;25.20;99.90;;;;;;4972789;28;20198;-68
2023/09/26 10:09:50;;;;;;;3.13;2.63;;;25.10;99.90;;;;;;4974260;28;20205;-68
2023/09/26 10:12:16;;;;;;;6.00;2.83;;;25.00;99.90;;;;;;4974035;28;20671;-68
2023/09/26 10:14:42;;;;;;;4.55;2.58;;;25.00;99.90;;;;;;4988618;28;20177;-68
2023/09/26 10:17:08;;;;;;;3.47;2.90;;;25.10;99.90;;;;;;4973957;28;20308;-68
2023/09/26 10:19:34;;;;;;;3.65;3.28;;;25.20;99.90;;;;;;4973967;28;20213;-68
2023/09/26 10:22:25;;;;;;;4.28;2.83;;;25.40;99.90;;;;;;5005213;28;20186;-69
2023/09/26 10:24:52;;;;;;;4.50;3.20;;;25.40;99.90;;;;;;4974166;28;20220;-70
2023/09/26 10:27:40;;;;;;;4.53;3.13;;;25.30;99.90;;;;;;4973739;28;20201;-68
2023/09/26 10:30:10;;;;;;;5.05;3.13;;;25.10;99.90;;;;;;4973870;28;20205;-69
2023/09/26 10:32:39;;;;;;;3.38;3.08;;;25.00;99.90;;;;;;4973587;28;20181;-69
2023/09/26 10:35:26;;;;;;;4.68;3.30;;;25.00;99.90;;;;;;4973999;28;20214;-69
2023/09/26 10:38:07;;;;;;;3.95;2.92;;;24.80;99.90;;;;;;4973682;28;20177;-69
2023/09/26 10:40:33;;;;;;;3.28;2.97;;;24.70;99.90;;;;;;4973209;28;20667;-69
2023/09/26 10:42:59;;;;;;;4.25;2.95;;;24.60;99.90;;;;;;4973743;28;20177;-68
2023/09/26 10:45:24;;;;;;;4.65;3.00;;;24.60;99.90;;;;;;4973564;28;20185;-69
2023/09/26 10:47:50;;;;;;;3.75;2.92;;;24.60;99.90;;;;;;4973303;28;20517;-69
2023/09/26 10:50:16;;;;;;;4.20;3.30;;;24.60;99.90;;;;;;4978981;28;20727;-69
2023/09/26 10:52:46;;;;;;;3.38;3.00;;;24.60;99.90;;;;;;4973229;28;20183;-69
2023/09/26 10:55:19;;;;;;;4.07;3.33;;;24.70;99.90;;;;;;4973327;28;20205;-69
2023/09/26 10:57:45;;;;;;;7.30;3.22;;;24.40;99.90;;;;;;4973393;28;20268;-68
2023/09/26 11:00:12;;;;;;;4.18;3.30;;;24.40;99.90;;;;;;4973317;28;20585;-69
2023/09/26 11:02:38;;;;;;;3.40;3.08;;;24.50;99.90;;;;;;4973552;28;20182;-69
2023/09/26 11:05:08;;;;;;;3.90;3.05;;;24.50;99.90;;;;;;4973426;28;20675;-69
2023/09/26 11:07:35;;;;;;;5.43;2.95;;;24.50;99.90;;;;;;4972923;28;20657;-69
2023/09/26 11:10:03;;;;;;;3.72;2.90;;;24.30;99.90;;;;;;4973086;28;20235;-69
2023/09/26 11:12:30;;;;;;;5.55;3.17;;;24.40;99.90;;;;;;4972834;28;20170;-68
2023/09/26 11:14:55;;;;;;;3.38;3.08;;;24.50;99.90;;;;;;4974220;28;20217;-68
2023/09/26 11:17:23;;;;;;;4.78;3.10;;;24.40;99.90;;;;;;4973002;28;20599;-68
2023/09/26 11:19:50;;;;;;;3.60;3.05;;;24.30;99.90;;;;;;4973259;28;20189;-68
2023/09/26 11:22:16;;;;;;;5.28;3.65;;;24.20;99.90;;;;;;4972838;28;20182;-70
2023/09/26 11:24:42;;;;;;;4.05;3.08;;;24.20;99.90;;;;;;4973192;28;20185;-69
2023/09/26 11:27:11;;;;;;;3.00;2.80;;;24.30;99.90;;;;;;4972936;28;20567;-69
2023/09/26 11:29:37;;;;;;;3.42;2.97;;;24.40;99.90;;;;;;4973667;28;20247;-69
2023/09/26 11:32:04;;;;;;;8.32;3.00;;;24.60;99.90;;;;;;4972737;28;20657;-69
2023/09/26 11:34:30;;;;;;;3.05;2.80;;;24.80;99.90;;;;;;4971253;28;20644;-69
2023/09/26 11:36:57;;;;;;;4.18;3.78;;;24.90;99.90;;;;;;4972796;28;20200;-68
2023/09/26 11:39:23;;;;;;;3.35;3.05;;;25.10;99.90;;;;;;4973698;28;20252;-69
2023/09/26 11:42:17;;;;;;;4.45;3.17;;;25.10;99.90;;;;;;4975643;28;20264;-70
2023/09/26 11:44:56;;;;;;;3.90;3.53;;;25.10;99.90;;;;;;4972204;28;20280;-70
2023/09/26 11:47:23;;;;;;;3.63;3.33;;;25.00;99.90;;;;;;4972199;28;20208;-69
2023/09/26 11:49:50;;;;;;;3.42;2.85;;;25.20;99.90;;;;;;4972360;28;20697;-69
2023/09/26 11:52:17;;;;;;;5.75;3.15;;;25.30;99.90;;;;;;4972095;28;20244;-69
2023/09/26 11:54:44;;;;;;;3.90;3.15;;;25.40;99.90;;;;;;4972341;28;20173;-68
2023/09/26 11:57:12;;;;;;;7.70;2.85;;;25.60;99.90;;;;;;4972282;28;20217;-69
2023/09/26 11:59:38;;;;;;;2.88;2.67;;;25.80;99.90;;;;;;4971519;28;20185;-69
2023/09/26 12:02:04;;;;;;;4.63;2.92;;;26.00;99.90;;;;;;4971830;28;20189;-69
2023/09/26 12:04:32;;;;;;;4.65;2.80;;;26.10;99.90;;;;;;4971973;28;20189;-69
2023/09/26 12:06:58;;;;;;;5.07;2.80;;;26.10;99.90;;;;;;4972169;28;20256;-69
2023/09/26 12:09:23;;;;;;;3.38;3.08;;;26.20;99.90;;;;;;4973153;28;20185;-69
2023/09/26 12:11:51;;;;;;;2.78;2.58;;;26.20;99.90;;;;;;4972075;28;20617;-69
2023/09/26 12:14:18;;;;;;;3.40;2.65;;;26.30;99.90;;;;;;4972212;28;20181;-69
2023/09/26 12:16:44;;;;;;;3.60;2.33;;;26.30;99.90;;;;;;4972048;28;20195;-69
2023/09/26 12:19:10;;;;;;;2.88;2.67;;;26.50;99.90;;;;;;4972269;28;20180;-70
2023/09/26 12:21:36;;;;;;;2.92;2.55;;;26.40;99.90;;;;;;4971895;28;20578;-68
2023/09/26 12:24:01;;;;;;;3.55;2.55;;;26.60;99.90;;;;;;4972212;28;20188;-69
2023/09/26 12:26:28;;;;;;;3.55;2.60;;;27.00;99.90;;;;;;4971794;28;20228;-69
2023/09/26 12:28:53;;;;;;;5.50;2.67;;;27.20;99.90;;;;;;5003359;28;20216;-68
2023/09/26 12:31:19;;;;;;;2.53;2.33;;;27.40;99.90;;;;;;4971684;28;20237;-69
2023/09/26 12:33:45;;;;;;;2.67;2.30;;;27.50;99.90;;;;;;4972053;28;20189;-69
2023/09/26 12:36:10;;;;;;;2.47;2.28;;;27.50;99.90;;;;;;4980180;28;20190;-68
2023/09/26 12:38:36;;;;;;;3.15;2.80;;;27.70;99.90;;;;;;4976131;28;20553;-69
2023/09/26 12:41:02;;;;;;;3.08;2.78;;;27.80;99.90;;;;;;4979561;28;20283;-69
2023/09/26 12:43:28;;;;;;;2.83;2.58;;;27.80;99.90;;;;;;4973952;28;20186;-69